sensor_id;sensor_type;location;lat;lon;timestamp;temperature;humidity
26589;DHT22;14235;48.532;8.722;2023-06-22T00:00:42;21.80;99.90
26589;DHT22;14235;48.532;8.722;2023-06-22T00:03:09;21.90;99.90
26589;DHT22;14235;48.532;8.722;2023-06-22T00:05:34;21.70;99.90
26589;DHT22;14235;48.532;8.722;2023-06-22T00:08:03;21.80;99.90
26589;DHT22;14235;48.532;8.722;2023-06-22T00:10:30;21.60;99.90
26589;DHT22;14235;48.532;8.722;2023-06-22T00:12:56;21.60;99.90
26589;DHT22;14235;48.532;8.722;2023-06-22T00:15:21;21.60;99.90
26589;DHT22;14235;48.532;8.722;2023-06-22T00:17:47;21.60;99.90
26589;DHT22;14235;48.532;8.722;2023-06-22T00:20:12;21.50;99.90
26589;DHT22;14235;48.532;8.722;2023-06-22T00:22:39;21.40;99.90
26589;DHT22;14235;48.532;8.722;2023-06-22T00:25:06;21.40;99.90
26589;DHT22;14235;48.532;8.722;2023-06-22T00:27:32;21.30;99.90
26589;DHT22;14235;48.532;8.722;2023-06-22T00:29:58;21.50;99.90
26589;DHT22;14235;48.532;8.722;2023-06-22T00:32:24;21.20;99.90
26589;DHT22;14235;48.532;8.722;2023-06-22T00:34:49;21.00;99.90
26589;DHT22;14235;48.532;8.722;2023-06-22T01:04:10;20.60;99.90
26589;DHT22;14235;48.532;8.722;2023-06-22T01:06:42;20.70;99.90
26589;DHT22;14235;48.532;8.722;2023-06-22T01:09:29;20.80;99.90
26589;DHT22;14235;48.532;8.722;2023-06-22T01:12:07;20.70;99.90
26589;DHT22;14235;48.532;8.722;2023-06-22T01:14:47;20.70;99.90
26589;DHT22;14235;48.532;8.722;2023-06-22T01:17:19;20.60;99.90
26589;DHT22;14235;48.532;8.722;2023-06-22T01:19:54;20.70;99.90
26589;DHT22;14235;48.532;8.722;2023-06-22T01:22:24;20.70;99.90
26589;DHT22;14235;48.532;8.722;2023-06-22T01:25:13;20.80;99.90
26589;DHT22;14235;48.532;8.722;2023-06-22T01:30:55;20.60;99.90
26589;DHT22;14235;48.532;8.722;2023-06-22T01:33:29;20.60;99.90
26589;DHT22;14235;48.532;8.722;2023-06-22T01:35:56;20.90;99.90
26589;DHT22;14235;48.532;8.722;2023-06-22T01:38:22;20.70;99.90
26589;DHT22;14235;48.532;8.722;2023-06-22T01:40:48;20.70;99.90
26589;DHT22;14235;48.532;8.722;2023-06-22T01:43:14;20.50;99.90
26589;DHT22;14235;48.532;8.722;2023-06-22T01:45:40;20.50;99.90
26589;DHT22;14235;48.532;8.722;2023-06-22T01:48:06;20.50;99.90
26589;DHT22;14235;48.532;8.722;2023-06-22T01:50:32;20.00;99.90
26589;DHT22;14235;48.532;8.722;2023-06-22T01:52:58;20.40;99.90
26589;DHT22;14235;48.532;8.722;2023-06-22T01:55:24;20.30;99.90
26589;DHT22;14235;48.532;8.722;2023-06-22T01:57:49;20.30;99.90
26589;DHT22;14235;48.532;8.722;2023-06-22T02:00:20;20.30;99.90
26589;DHT22;14235;48.532;8.722;2023-06-22T02:03:01;20.30;99.90
26589;DHT22;14235;48.532;8.722;2023-06-22T02:05:42;20.00;99.90
26589;DHT22;14235;48.532;8.722;2023-06-22T02:08:09;20.00;99.90
26589;DHT22;14235;48.532;8.722;2023-06-22T02:10:37;20.20;99.90
26589;DHT22;14235;48.532;8.722;2023-06-22T02:13:06;20.40;99.90
26589;DHT22;14235;48.532;8.722;2023-06-22T02:15:33;20.40;99.90
26589;DHT22;14235;48.532;8.722;2023-06-22T02:17:59;20.20;99.90
26589;DHT22;14235;48.532;8.722;2023-06-22T02:20:25;20.10;99.90
26589;DHT22;14235;48.532;8.722;2023-06-22T02:22:50;20.30;99.90
26589;DHT22;14235;48.532;8.722;2023-06-22T02:25:16;20.40;99.90
26589;DHT22;14235;48.532;8.722;2023-06-22T02:27:41;20.30;99.90
26589;DHT22;14235;48.532;8.722;2023-06-22T02:30:08;20.10;99.90
26589;DHT22;14235;48.532;8.722;2023-06-22T02:32:35;20.10;99.90
26589;DHT22;14235;48.532;8.722;2023-06-22T02:35:00;20.30;99.90
26589;DHT22;14235;48.532;8.722;2023-06-22T02:37:30;20.50;99.90
26589;DHT22;14235;48.532;8.722;2023-06-22T02:39:55;20.30;99.90
26589;DHT22;14235;48.532;8.722;2023-06-22T02:42:21;20.20;99.90
26589;DHT22;14235;48.532;8.722;2023-06-22T02:44:47;20.00;99.90
26589;DHT22;14235;48.532;8.722;2023-06-22T02:47:13;19.90;99.90
26589;DHT22;14235;48.532;8.722;2023-06-22T02:49:38;19.80;99.90
26589;DHT22;14235;48.532;8.722;2023-06-22T02:52:04;20.00;99.90
26589;DHT22;14235;48.532;8.722;2023-06-22T02:54:29;19.80;99.90
26589;DHT22;14235;48.532;8.722;2023-06-22T02:56:57;19.90;99.90
26589;DHT22;14235;48.532;8.722;2023-06-22T02:59:23;20.10;99.90
26589;DHT22;14235;48.532;8.722;2023-06-22T03:01:49;20.00;99.90
26589;DHT22;14235;48.532;8.722;2023-06-22T03:04:15;20.00;99.90
26589;DHT22;14235;48.532;8.722;2023-06-22T03:06:41;20.10;99.90
26589;DHT22;14235;48.532;8.722;2023-06-22T03:09:07;20.00;99.90
26589;DHT22;14235;48.532;8.722;2023-06-22T03:11:33;20.10;99.90
26589;DHT22;14235;48.532;8.722;2023-06-22T03:14:02;20.00;99.90
26589;DHT22;14235;48.532;8.722;2023-06-22T03:16:28;20.00;99.90
26589;DHT22;14235;48.532;8.722;2023-06-22T03:18:54;19.80;99.90
26589;DHT22;14235;48.532;8.722;2023-06-22T03:21:22;19.90;99.90
26589;DHT22;14235;48.532;8.722;2023-06-22T03:23:48;20.00;99.90
26589;DHT22;14235;48.532;8.722;2023-06-22T03:26:17;20.10;99.90
26589;DHT22;14235;48.532;8.722;2023-06-22T03:28:43;19.60;99.90
26589;DHT22;14235;48.532;8.722;2023-06-22T03:31:08;19.70;99.90
26589;DHT22;14235;48.532;8.722;2023-06-22T03:33:34;19.60;99.90
26589;DHT22;14235;48.532;8.722;2023-06-22T03:35:59;19.50;99.90
26589;DHT22;14235;48.532;8.722;2023-06-22T03:38:25;19.40;99.90
26589;DHT22;14235;48.532;8.722;2023-06-22T03:40:50;19.70;99.90
26589;DHT22;14235;48.532;8.722;2023-06-22T03:43:16;19.60;99.90
26589;DHT22;14235;48.532;8.722;2023-06-22T03:45:41;20.00;99.90
26589;DHT22;14235;48.532;8.722;2023-06-22T03:48:07;19.80;99.90
26589;DHT22;14235;48.532;8.722;2023-06-22T03:50:33;19.60;99.90
26589;DHT22;14235;48.532;8.722;2023-06-22T03:52:58;19.50;99.90
26589;DHT22;14235;48.532;8.722;2023-06-22T03:55:24;19.60;99.90
26589;DHT22;14235;48.532;8.722;2023-06-22T03:57:49;19.70;99.90
26589;DHT22;14235;48.532;8.722;2023-06-22T04:00:15;19.70;99.90
26589;DHT22;14235;48.532;8.722;2023-06-22T04:02:43;19.50;99.90
26589;DHT22;14235;48.532;8.722;2023-06-22T04:05:09;19.80;99.90
26589;DHT22;14235;48.532;8.722;2023-06-22T04:07:35;19.60;99.90
26589;DHT22;14235;48.532;8.722;2023-06-22T04:10:03;19.40;99.90
26589;DHT22;14235;48.532;8.722;2023-06-22T04:12:29;19.50;99.90
26589;DHT22;14235;48.532;8.722;2023-06-22T04:14:54;19.80;99.90
26589;DHT22;14235;48.532;8.722;2023-06-22T04:17:20;19.80;99.90
26589;DHT22;14235;48.532;8.722;2023-06-22T04:19:46;19.60;99.90
26589;DHT22;14235;48.532;8.722;2023-06-22T04:22:11;19.60;99.90
26589;DHT22;14235;48.532;8.722;2023-06-22T04:24:37;19.60;99.90
26589;DHT22;14235;48.532;8.722;2023-06-22T04:27:03;19.50;99.90
26589;DHT22;14235;48.532;8.722;2023-06-22T04:29:32;19.40;99.90
26589;DHT22;14235;48.532;8.722;2023-06-22T04:31:57;19.80;99.90
26589;DHT22;14235;48.532;8.722;2023-06-22T04:34:24;19.70;99.90
26589;DHT22;14235;48.532;8.722;2023-06-22T04:36:52;19.70;99.90
26589;DHT22;14235;48.532;8.722;2023-06-22T04:39:17;19.80;99.90
26589;DHT22;14235;48.532;8.722;2023-06-22T04:41:44;19.70;99.90
26589;DHT22;14235;48.532;8.722;2023-06-22T04:44:18;19.40;99.90
26589;DHT22;14235;48.532;8.722;2023-06-22T04:46:54;19.60;99.90
26589;DHT22;14235;48.532;8.722;2023-06-22T04:49:25;19.70;99.90
26589;DHT22;14235;48.532;8.722;2023-06-22T04:51:59;19.80;99.90
26589;DHT22;14235;48.532;8.722;2023-06-22T04:54:24;19.90;99.90
26589;DHT22;14235;48.532;8.722;2023-06-22T04:56:50;19.80;99.90
26589;DHT22;14235;48.532;8.722;2023-06-22T04:59:31;19.90;99.90
26589;DHT22;14235;48.532;8.722;2023-06-22T05:01:57;19.80;99.90
26589;DHT22;14235;48.532;8.722;2023-06-22T05:04:24;19.90;99.90
26589;DHT22;14235;48.532;8.722;2023-06-22T05:06:50;19.90;99.90
26589;DHT22;14235;48.532;8.722;2023-06-22T05:09:16;20.20;99.90
26589;DHT22;14235;48.532;8.722;2023-06-22T05:11:43;19.50;99.90
26589;DHT22;14235;48.532;8.722;2023-06-22T05:14:09;20.10;99.90
26589;DHT22;14235;48.532;8.722;2023-06-22T05:16:34;20.10;99.90
26589;DHT22;14235;48.532;8.722;2023-06-22T05:19:00;20.30;99.90
26589;DHT22;14235;48.532;8.722;2023-06-22T05:21:28;20.30;99.90
26589;DHT22;14235;48.532;8.722;2023-06-22T05:23:54;20.30;99.90
26589;DHT22;14235;48.532;8.722;2023-06-22T05:26:21;20.60;99.90
26589;DHT22;14235;48.532;8.722;2023-06-22T05:28:47;20.40;99.90
26589;DHT22;14235;48.532;8.722;2023-06-22T05:31:17;20.60;99.90
26589;DHT22;14235;48.532;8.722;2023-06-22T05:33:43;20.50;99.90
26589;DHT22;14235;48.532;8.722;2023-06-22T05:36:09;20.60;99.90
26589;DHT22;14235;48.532;8.722;2023-06-22T05:38:36;20.60;99.90
26589;DHT22;14235;48.532;8.722;2023-06-22T05:41:02;20.50;99.90
26589;DHT22;14235;48.532;8.722;2023-06-22T05:43:27;20.90;99.90
26589;DHT22;14235;48.532;8.722;2023-06-22T05:45:53;20.50;99.90
26589;DHT22;14235;48.532;8.722;2023-06-22T05:48:18;20.60;99.90
26589;DHT22;14235;48.532;8.722;2023-06-22T05:50:44;20.80;99.90
26589;DHT22;14235;48.532;8.722;2023-06-22T05:53:09;20.60;99.90
26589;DHT22;14235;48.532;8.722;2023-06-22T05:55:35;20.70;99.90
26589;DHT22;14235;48.532;8.722;2023-06-22T05:58:01;20.70;99.90
26589;DHT22;14235;48.532;8.722;2023-06-22T06:00:26;20.80;99.90
26589;DHT22;14235;48.532;8.722;2023-06-22T06:02:52;20.80;99.90
26589;DHT22;14235;48.532;8.722;2023-06-22T06:05:18;20.90;99.90
26589;DHT22;14235;48.532;8.722;2023-06-22T06:07:45;21.00;99.90
26589;DHT22;14235;48.532;8.722;2023-06-22T06:10:11;21.20;99.90
26589;DHT22;14235;48.532;8.722;2023-06-22T06:12:37;21.10;99.90
26589;DHT22;14235;48.532;8.722;2023-06-22T06:15:03;21.10;99.90
26589;DHT22;14235;48.532;8.722;2023-06-22T06:17:29;21.10;99.90
26589;DHT22;14235;48.532;8.722;2023-06-22T06:19:55;21.20;99.90
26589;DHT22;14235;48.532;8.722;2023-06-22T06:22:20;21.30;99.90
26589;DHT22;14235;48.532;8.722;2023-06-22T06:24:47;21.30;99.90
26589;DHT22;14235;48.532;8.722;2023-06-22T06:27:13;21.30;99.90
26589;DHT22;14235;48.532;8.722;2023-06-22T06:29:39;21.40;99.90
26589;DHT22;14235;48.532;8.722;2023-06-22T06:32:04;21.40;99.90
26589;DHT22;14235;48.532;8.722;2023-06-22T06:34:30;21.40;99.90
26589;DHT22;14235;48.532;8.722;2023-06-22T06:36:56;21.60;99.90
26589;DHT22;14235;48.532;8.722;2023-06-22T06:39:21;21.60;99.90
26589;DHT22;14235;48.532;8.722;2023-06-22T06:41:47;21.90;99.90
26589;DHT22;14235;48.532;8.722;2023-06-22T06:44:12;21.70;99.90
26589;DHT22;14235;48.532;8.722;2023-06-22T06:46:38;21.80;99.90
26589;DHT22;14235;48.532;8.722;2023-06-22T06:49:04;21.90;99.90
26589;DHT22;14235;48.532;8.722;2023-06-22T06:51:29;22.10;99.90
26589;DHT22;14235;48.532;8.722;2023-06-22T06:53:55;22.10;99.90
26589;DHT22;14235;48.532;8.722;2023-06-22T06:56:20;22.10;99.90
26589;DHT22;14235;48.532;8.722;2023-06-22T06:58:46;22.10;99.90
26589;DHT22;14235;48.532;8.722;2023-06-22T07:03:39;22.10;99.90
26589;DHT22;14235;48.532;8.722;2023-06-22T07:06:05;22.30;99.90
26589;DHT22;14235;48.532;8.722;2023-06-22T07:08:31;22.50;99.90
26589;DHT22;14235;48.532;8.722;2023-06-22T07:10:56;22.30;99.90
26589;DHT22;14235;48.532;8.722;2023-06-22T07:13:22;22.40;99.90
26589;DHT22;14235;48.532;8.722;2023-06-22T07:15:48;22.50;99.90
26589;DHT22;14235;48.532;8.722;2023-06-22T07:18:13;22.60;99.90
26589;DHT22;14235;48.532;8.722;2023-06-22T07:20:39;22.50;99.90
26589;DHT22;14235;48.532;8.722;2023-06-22T07:23:06;22.90;99.90
26589;DHT22;14235;48.532;8.722;2023-06-22T07:25:31;22.70;99.90
26589;DHT22;14235;48.532;8.722;2023-06-22T07:27:58;22.90;99.90
26589;DHT22;14235;48.532;8.722;2023-06-22T07:30:25;22.80;99.90
26589;DHT22;14235;48.532;8.722;2023-06-22T07:32:50;22.90;99.90
26589;DHT22;14235;48.532;8.722;2023-06-22T07:35:16;22.90;99.90
26589;DHT22;14235;48.532;8.722;2023-06-22T07:37:42;22.90;99.90
26589;DHT22;14235;48.532;8.722;2023-06-22T07:40:08;23.00;99.90
26589;DHT22;14235;48.532;8.722;2023-06-22T07:42:34;23.00;99.90
26589;DHT22;14235;48.532;8.722;2023-06-22T07:45:00;23.10;99.90
26589;DHT22;14235;48.532;8.722;2023-06-22T07:47:26;23.10;99.90
26589;DHT22;14235;48.532;8.722;2023-06-22T07:49:57;23.20;99.90
26589;DHT22;14235;48.532;8.722;2023-06-22T07:52:24;23.30;99.90
26589;DHT22;14235;48.532;8.722;2023-06-22T07:54:51;23.50;99.90
26589;DHT22;14235;48.532;8.722;2023-06-22T07:57:16;23.40;99.90
26589;DHT22;14235;48.532;8.722;2023-06-22T07:59:42;23.40;99.90
26589;DHT22;14235;48.532;8.722;2023-06-22T08:02:07;23.50;99.90
26589;DHT22;14235;48.532;8.722;2023-06-22T08:04:34;23.60;99.90
26589;DHT22;14235;48.532;8.722;2023-06-22T08:07:00;23.70;99.90
26589;DHT22;14235;48.532;8.722;2023-06-22T08:09:28;23.80;99.90
26589;DHT22;14235;48.532;8.722;2023-06-22T08:11:54;23.80;99.90
26589;DHT22;14235;48.532;8.722;2023-06-22T08:14:22;23.80;99.90
26589;DHT22;14235;48.532;8.722;2023-06-22T08:16:48;23.80;99.90
26589;DHT22;14235;48.532;8.722;2023-06-22T08:19:14;23.90;99.90
26589;DHT22;14235;48.532;8.722;2023-06-22T08:21:39;24.10;99.90
26589;DHT22;14235;48.532;8.722;2023-06-22T08:24:05;24.00;99.90
26589;DHT22;14235;48.532;8.722;2023-06-22T08:26:32;24.30;99.90
26589;DHT22;14235;48.532;8.722;2023-06-22T08:29:01;24.10;99.90
26589;DHT22;14235;48.532;8.722;2023-06-22T08:31:27;24.10;99.90
26589;DHT22;14235;48.532;8.722;2023-06-22T08:33:53;24.10;99.90
26589;DHT22;14235;48.532;8.722;2023-06-22T08:36:18;24.10;99.90
26589;DHT22;14235;48.532;8.722;2023-06-22T08:38:44;24.10;99.90
26589;DHT22;14235;48.532;8.722;2023-06-22T08:41:10;24.40;99.90
26589;DHT22;14235;48.532;8.722;2023-06-22T08:43:36;24.40;99.90
26589;DHT22;14235;48.532;8.722;2023-06-22T08:46:01;24.40;99.90
26589;DHT22;14235;48.532;8.722;2023-06-22T08:48:29;24.40;99.90
26589;DHT22;14235;48.532;8.722;2023-06-22T08:50:54;24.40;99.90
26589;DHT22;14235;48.532;8.722;2023-06-22T08:53:20;24.60;99.90
26589;DHT22;14235;48.532;8.722;2023-06-22T08:55:46;24.50;99.90
26589;DHT22;14235;48.532;8.722;2023-06-22T08:58:11;24.60;99.90
26589;DHT22;14235;48.532;8.722;2023-06-22T09:00:37;24.60;99.90
26589;DHT22;14235;48.532;8.722;2023-06-22T09:03:02;24.70;99.90
26589;DHT22;14235;48.532;8.722;2023-06-22T09:05:29;24.70;99.90
26589;DHT22;14235;48.532;8.722;2023-06-22T09:07:56;24.70;99.90
26589;DHT22;14235;48.532;8.722;2023-06-22T09:10:22;24.70;99.90
26589;DHT22;14235;48.532;8.722;2023-06-22T09:12:47;24.80;99.90
26589;DHT22;14235;48.532;8.722;2023-06-22T09:15:13;25.00;99.90
26589;DHT22;14235;48.532;8.722;2023-06-22T09:17:40;25.10;99.90
26589;DHT22;14235;48.532;8.722;2023-06-22T09:20:06;25.00;99.90
26589;DHT22;14235;48.532;8.722;2023-06-22T09:22:33;25.10;99.90
26589;DHT22;14235;48.532;8.722;2023-06-22T09:24:59;25.20;99.90
26589;DHT22;14235;48.532;8.722;2023-06-22T09:27:25;25.30;99.90
26589;DHT22;14235;48.532;8.722;2023-06-22T09:29:51;25.30;99.90
26589;DHT22;14235;48.532;8.722;2023-06-22T09:32:16;25.50;99.90
26589;DHT22;14235;48.532;8.722;2023-06-22T09:34:42;25.60;99.90
26589;DHT22;14235;48.532;8.722;2023-06-22T09:37:07;25.70;99.90
26589;DHT22;14235;48.532;8.722;2023-06-22T09:39:33;25.80;99.90
26589;DHT22;14235;48.532;8.722;2023-06-22T09:41:59;25.90;99.90
26589;DHT22;14235;48.532;8.722;2023-06-22T09:44:25;26.00;99.90
26589;DHT22;14235;48.532;8.722;2023-06-22T09:46:51;26.10;99.90
26589;DHT22;14235;48.532;8.722;2023-06-22T09:49:17;26.10;99.90
26589;DHT22;14235;48.532;8.722;2023-06-22T09:51:42;26.20;99.90
26589;DHT22;14235;48.532;8.722;2023-06-22T09:54:08;26.30;99.90
26589;DHT22;14235;48.532;8.722;2023-06-22T09:56:33;26.30;99.90
26589;DHT22;14235;48.532;8.722;2023-06-22T09:58:59;26.40;99.90
26589;DHT22;14235;48.532;8.722;2023-06-22T10:01:25;26.50;99.90
26589;DHT22;14235;48.532;8.722;2023-06-22T10:03:52;26.50;99.90
26589;DHT22;14235;48.532;8.722;2023-06-22T10:06:21;26.60;99.90
26589;DHT22;14235;48.532;8.722;2023-06-22T10:08:46;26.60;99.90
26589;DHT22;14235;48.532;8.722;2023-06-22T10:11:13;26.70;99.90
26589;DHT22;14235;48.532;8.722;2023-06-22T10:13:39;26.70;99.90
26589;DHT22;14235;48.532;8.722;2023-06-22T10:16:04;26.80;99.90
26589;DHT22;14235;48.532;8.722;2023-06-22T10:18:30;26.80;99.90
26589;DHT22;14235;48.532;8.722;2023-06-22T10:20:56;26.90;99.90
26589;DHT22;14235;48.532;8.722;2023-06-22T10:23:21;26.90;99.90
26589;DHT22;14235;48.532;8.722;2023-06-22T10:25:47;27.00;99.90
26589;DHT22;14235;48.532;8.722;2023-06-22T10:28:13;27.10;99.90
26589;DHT22;14235;48.532;8.722;2023-06-22T10:30:42;27.20;99.90
26589;DHT22;14235;48.532;8.722;2023-06-22T10:33:08;27.30;99.90
26589;DHT22;14235;48.532;8.722;2023-06-22T10:35:34;27.30;99.90
26589;DHT22;14235;48.532;8.722;2023-06-22T10:38:00;27.40;99.90
26589;DHT22;14235;48.532;8.722;2023-06-22T10:40:26;27.50;99.90
26589;DHT22;14235;48.532;8.722;2023-06-22T10:42:51;27.50;99.90
26589;DHT22;14235;48.532;8.722;2023-06-22T10:45:17;27.60;99.90
26589;DHT22;14235;48.532;8.722;2023-06-22T10:47:42;27.60;99.90
26589;DHT22;14235;48.532;8.722;2023-06-22T10:50:08;27.70;99.90
26589;DHT22;14235;48.532;8.722;2023-06-22T10:52:34;27.70;99.90
26589;DHT22;14235;48.532;8.722;2023-06-22T10:55:00;27.80;99.90
26589;DHT22;14235;48.532;8.722;2023-06-22T10:57:25;27.80;99.90
26589;DHT22;14235;48.532;8.722;2023-06-22T10:59:51;27.90;99.90
26589;DHT22;14235;48.532;8.722;2023-06-22T11:02:17;27.90;99.90
26589;DHT22;14235;48.532;8.722;2023-06-22T11:04:42;27.90;99.90
26589;DHT22;14235;48.532;8.722;2023-06-22T11:07:09;27.90;99.90
26589;DHT22;14235;48.532;8.722;2023-06-22T11:09:35;27.90;99.90
26589;DHT22;14235;48.532;8.722;2023-06-22T11:12:01;28.10;99.90
26589;DHT22;14235;48.532;8.722;2023-06-22T11:14:26;28.10;99.90
26589;DHT22;14235;48.532;8.722;2023-06-22T11:16:52;28.10;99.90
26589;DHT22;14235;48.532;8.722;2023-06-22T11:19:18;28.20;99.90
26589;DHT22;14235;48.532;8.722;2023-06-22T11:21:44;28.20;99.90
26589;DHT22;14235;48.532;8.722;2023-06-22T11:26:36;28.20;99.90
26589;DHT22;14235;48.532;8.722;2023-06-22T11:29:02;28.20;99.90
26589;DHT22;14235;48.532;8.722;2023-06-22T11:31:31;28.20;99.90
26589;DHT22;14235;48.532;8.722;2023-06-22T11:33:57;28.20;99.90
26589;DHT22;14235;48.532;8.722;2023-06-22T11:36:22;28.20;99.80
26589;DHT22;14235;48.532;8.722;2023-06-22T11:38:54;28.00;99.80
26589;DHT22;14235;48.532;8.722;2023-06-22T11:41:32;29.10;99.90
26589;DHT22;14235;48.532;8.722;2023-06-22T11:43:58;28.00;99.90
26589;DHT22;14235;48.532;8.722;2023-06-22T11:46:23;27.90;99.90
26589;DHT22;14235;48.532;8.722;2023-06-22T11:48:50;27.90;99.90
26589;DHT22;14235;48.532;8.722;2023-06-22T11:51:15;27.80;99.90
26589;DHT22;14235;48.532;8.722;2023-06-22T11:53:41;27.80;99.90
26589;DHT22;14235;48.532;8.722;2023-06-22T11:56:06;27.80;99.90
26589;DHT22;14235;48.532;8.722;2023-06-22T11:58:32;27.90;99.90
26589;DHT22;14235;48.532;8.722;2023-06-22T12:00:57;27.80;99.90
26589;DHT22;14235;48.532;8.722;2023-06-22T12:03:23;27.80;99.90
26589;DHT22;14235;48.532;8.722;2023-06-22T12:05:49;27.80;99.90
26589;DHT22;14235;48.532;8.722;2023-06-22T12:08:15;27.80;99.90
26589;DHT22;14235;48.532;8.722;2023-06-22T12:10:41;27.80;99.90
26589;DHT22;14235;48.532;8.722;2023-06-22T12:13:06;27.80;99.90
26589;DHT22;14235;48.532;8.722;2023-06-22T12:15:32;27.80;99.90
26589;DHT22;14235;48.532;8.722;2023-06-22T12:17:57;27.80;99.90
26589;DHT22;14235;48.532;8.722;2023-06-22T12:20:23;27.90;99.90
26589;DHT22;14235;48.532;8.722;2023-06-22T12:22:49;27.90;99.90
26589;DHT22;14235;48.532;8.722;2023-06-22T12:25:16;28.00;99.90
26589;DHT22;14235;48.532;8.722;2023-06-22T12:27:42;28.10;99.90
26589;DHT22;14235;48.532;8.722;2023-06-22T12:30:08;28.10;99.90
26589;DHT22;14235;48.532;8.722;2023-06-22T12:32:34;28.10;99.90
26589;DHT22;14235;48.532;8.722;2023-06-22T12:35:00;28.20;99.90
26589;DHT22;14235;48.532;8.722;2023-06-22T12:37:25;28.20;99.90
26589;DHT22;14235;48.532;8.722;2023-06-22T12:39:51;28.20;99.90
26589;DHT22;14235;48.532;8.722;2023-06-22T12:42:16;28.20;99.90
26589;DHT22;14235;48.532;8.722;2023-06-22T12:44:42;28.20;99.90
26589;DHT22;14235;48.532;8.722;2023-06-22T12:47:09;28.20;99.90
26589;DHT22;14235;48.532;8.722;2023-06-22T12:49:35;28.20;99.90
26589;DHT22;14235;48.532;8.722;2023-06-22T12:52:01;28.30;99.90
26589;DHT22;14235;48.532;8.722;2023-06-22T12:54:27;28.10;99.90
26589;DHT22;14235;48.532;8.722;2023-06-22T12:56:53;28.20;99.90
26589;DHT22;14235;48.532;8.722;2023-06-22T12:59:19;28.00;99.90
26589;DHT22;14235;48.532;8.722;2023-06-22T13:01:44;28.00;99.90
26589;DHT22;14235;48.532;8.722;2023-06-22T13:04:11;28.00;99.90
26589;DHT22;14235;48.532;8.722;2023-06-22T13:06:42;28.00;99.90
26589;DHT22;14235;48.532;8.722;2023-06-22T13:09:10;27.90;99.90
26589;DHT22;14235;48.532;8.722;2023-06-22T13:11:35;27.90;99.90
26589;DHT22;14235;48.532;8.722;2023-06-22T13:14:01;28.00;99.90
26589;DHT22;14235;48.532;8.722;2023-06-22T13:16:27;28.00;99.90
26589;DHT22;14235;48.532;8.722;2023-06-22T13:18:52;28.00;99.90
26589;DHT22;14235;48.532;8.722;2023-06-22T13:21:18;28.00;99.90
26589;DHT22;14235;48.532;8.722;2023-06-22T13:23:43;27.30;99.90
26589;DHT22;14235;48.532;8.722;2023-06-22T13:26:09;28.10;99.90
26589;DHT22;14235;48.532;8.722;2023-06-22T13:28:35;28.10;99.90
26589;DHT22;14235;48.532;8.722;2023-06-22T13:31:00;28.10;99.90
26589;DHT22;14235;48.532;8.722;2023-06-22T13:33:26;28.10;99.90
26589;DHT22;14235;48.532;8.722;2023-06-22T13:35:51;28.10;99.90
26589;DHT22;14235;48.532;8.722;2023-06-22T13:38:17;28.10;99.90
26589;DHT22;14235;48.532;8.722;2023-06-22T13:40:43;28.10;99.90
26589;DHT22;14235;48.532;8.722;2023-06-22T13:43:08;28.20;99.90
26589;DHT22;14235;48.532;8.722;2023-06-22T13:45:34;28.10;99.90
26589;DHT22;14235;48.532;8.722;2023-06-22T13:48:00;28.10;99.90
26589;DHT22;14235;48.532;8.722;2023-06-22T13:50:25;28.20;99.90
26589;DHT22;14235;48.532;8.722;2023-06-22T13:52:51;28.40;98.60
26589;DHT22;14235;48.532;8.722;2023-06-22T13:55:16;28.50;94.30
26589;DHT22;14235;48.532;8.722;2023-06-22T13:57:42;28.70;94.10
26589;DHT22;14235;48.532;8.722;2023-06-22T14:00:08;28.80;92.90
26589;DHT22;14235;48.532;8.722;2023-06-22T14:02:34;28.90;92.80
26589;DHT22;14235;48.532;8.722;2023-06-22T14:05:00;29.10;90.90
26589;DHT22;14235;48.532;8.722;2023-06-22T14:07:25;29.20;85.60
26589;DHT22;14235;48.532;8.722;2023-06-22T14:09:51;29.20;87.30
26589;DHT22;14235;48.532;8.722;2023-06-22T14:12:17;29.40;90.40
26589;DHT22;14235;48.532;8.722;2023-06-22T14:14:45;29.40;85.80
26589;DHT22;14235;48.532;8.722;2023-06-22T14:17:11;29.50;86.60
26589;DHT22;14235;48.532;8.722;2023-06-22T14:19:37;29.40;85.90
26589;DHT22;14235;48.532;8.722;2023-06-22T14:22:03;29.50;84.40
26589;DHT22;14235;48.532;8.722;2023-06-22T14:24:28;29.50;87.00
26589;DHT22;14235;48.532;8.722;2023-06-22T14:26:55;29.50;87.50
26589;DHT22;14235;48.532;8.722;2023-06-22T14:29:21;29.60;85.80
26589;DHT22;14235;48.532;8.722;2023-06-22T14:31:48;29.70;86.40
26589;DHT22;14235;48.532;8.722;2023-06-22T14:36:39;30.10;73.60
26589;DHT22;14235;48.532;8.722;2023-06-22T14:39:05;30.20;68.70
26589;DHT22;14235;48.532;8.722;2023-06-22T14:41:31;30.30;69.10
26589;DHT22;14235;48.532;8.722;2023-06-22T14:43:56;30.40;68.60
26589;DHT22;14235;48.532;8.722;2023-06-22T14:46:22;30.60;68.40
26589;DHT22;14235;48.532;8.722;2023-06-22T14:48:47;30.70;68.30
26589;DHT22;14235;48.532;8.722;2023-06-22T14:51:13;30.90;69.50
26589;DHT22;14235;48.532;8.722;2023-06-22T14:58:33;31.10;61.80
26589;DHT22;14235;48.532;8.722;2023-06-22T15:01:00;31.00;65.60
26589;DHT22;14235;48.532;8.722;2023-06-22T15:03:26;31.00;66.40
26589;DHT22;14235;48.532;8.722;2023-06-22T15:05:54;30.90;66.60
26589;DHT22;14235;48.532;8.722;2023-06-22T15:08:20;30.70;68.40
26589;DHT22;14235;48.532;8.722;2023-06-22T15:10:46;30.60;70.00
26589;DHT22;14235;48.532;8.722;2023-06-22T15:13:12;30.40;71.70
26589;DHT22;14235;48.532;8.722;2023-06-22T15:15:38;30.20;73.20
26589;DHT22;14235;48.532;8.722;2023-06-22T15:18:03;30.00;74.70
26589;DHT22;14235;48.532;8.722;2023-06-22T15:20:29;29.80;76.30
26589;DHT22;14235;48.532;8.722;2023-06-22T15:22:54;29.70;77.60
26589;DHT22;14235;48.532;8.722;2023-06-22T15:25:20;29.50;78.80
26589;DHT22;14235;48.532;8.722;2023-06-22T15:27:46;29.40;80.70
26589;DHT22;14235;48.532;8.722;2023-06-22T15:30:11;29.40;82.10
26589;DHT22;14235;48.532;8.722;2023-06-22T15:32:37;29.40;81.10
26589;DHT22;14235;48.532;8.722;2023-06-22T15:35:03;29.40;81.80
26589;DHT22;14235;48.532;8.722;2023-06-22T15:37:29;29.30;80.60
26589;DHT22;14235;48.532;8.722;2023-06-22T15:39:54;29.30;81.00
26589;DHT22;14235;48.532;8.722;2023-06-22T15:42:21;29.20;82.00
26589;DHT22;14235;48.532;8.722;2023-06-22T15:44:47;29.10;81.90
26589;DHT22;14235;48.532;8.722;2023-06-22T15:47:13;29.10;82.80
26589;DHT22;14235;48.532;8.722;2023-06-22T15:49:38;29.10;78.20
26589;DHT22;14235;48.532;8.722;2023-06-22T15:52:04;28.90;74.10
26589;DHT22;14235;48.532;8.722;2023-06-22T15:54:30;28.80;74.30
26589;DHT22;14235;48.532;8.722;2023-06-22T15:56:55;28.80;75.30
26589;DHT22;14235;48.532;8.722;2023-06-22T15:59:21;28.80;77.10
26589;DHT22;14235;48.532;8.722;2023-06-22T16:01:46;28.70;76.50
26589;DHT22;14235;48.532;8.722;2023-06-22T16:04:12;28.60;77.60
26589;DHT22;14235;48.532;8.722;2023-06-22T16:06:37;28.60;81.20